sensor_id;sensor_type;location;lat;lon;timestamp;temperature;humidity
41694;DHT22;27377;50.666;9.150;2023-02-11T00:01:30;2.40;99.90
41694;DHT22;27377;50.666;9.150;2023-02-11T00:04:00;2.40;99.90
41694;DHT22;27377;50.666;9.150;2023-02-11T00:06:31;2.50;99.90
41694;DHT22;27377;50.666;9.150;2023-02-11T00:08:57;2.50;99.90
41694;DHT22;27377;50.666;9.150;2023-02-11T00:11:24;2.40;99.90
41694;DHT22;27377;50.666;9.150;2023-02-11T00:13:53;2.50;99.90
41694;DHT22;27377;50.666;9.150;2023-02-11T00:16:20;2.50;99.90
41694;DHT22;27377;50.666;9.150;2023-02-11T00:18:46;2.50;99.90
41694;DHT22;27377;50.666;9.150;2023-02-11T00:21:17;2.50;99.90
41694;DHT22;27377;50.666;9.150;2023-02-11T00:23:43;2.50;99.90
41694;DHT22;27377;50.666;9.150;2023-02-11T00:28:41;2.50;99.90
41694;DHT22;27377;50.666;9.150;2023-02-11T00:31:07;2.50;99.90
41694;DHT22;27377;50.666;9.150;2023-02-11T00:33:33;2.50;99.90
41694;DHT22;27377;50.666;9.150;2023-02-11T00:36:07;2.50;99.90
41694;DHT22;27377;50.666;9.150;2023-02-11T00:38:33;2.50;99.90
41694;DHT22;27377;50.666;9.150;2023-02-11T00:40:58;2.50;99.90
41694;DHT22;27377;50.666;9.150;2023-02-11T00:43:24;2.50;99.90
41694;DHT22;27377;50.666;9.150;2023-02-11T00:45:50;2.50;99.90
41694;DHT22;27377;50.666;9.150;2023-02-11T00:48:15;2.50;99.90
41694;DHT22;27377;50.666;9.150;2023-02-11T00:50:41;2.50;99.90
41694;DHT22;27377;50.666;9.150;2023-02-11T00:53:06;2.60;99.90
41694;DHT22;27377;50.666;9.150;2023-02-11T00:55:32;2.60;99.90
41694;DHT22;27377;50.666;9.150;2023-02-11T00:57:58;2.60;99.90
41694;DHT22;27377;50.666;9.150;2023-02-11T01:00:24;2.60;99.90
41694;DHT22;27377;50.666;9.150;2023-02-11T01:02:50;2.60;99.90
41694;DHT22;27377;50.666;9.150;2023-02-11T01:05:16;2.60;99.90
41694;DHT22;27377;50.666;9.150;2023-02-11T01:07:42;2.60;99.90
41694;DHT22;27377;50.666;9.150;2023-02-11T01:10:07;2.50;99.90
41694;DHT22;27377;50.666;9.150;2023-02-11T01:12:33;2.50;99.90
41694;DHT22;27377;50.666;9.150;2023-02-11T01:14:59;2.60;99.90
41694;DHT22;27377;50.666;9.150;2023-02-11T01:17:24;2.50;99.90
41694;DHT22;27377;50.666;9.150;2023-02-11T01:19:50;2.50;99.90
41694;DHT22;27377;50.666;9.150;2023-02-11T01:22:15;2.60;99.90
41694;DHT22;27377;50.666;9.150;2023-02-11T01:24:41;2.50;99.90
41694;DHT22;27377;50.666;9.150;2023-02-11T01:27:06;2.50;99.90
41694;DHT22;27377;50.666;9.150;2023-02-11T01:29:32;2.50;99.90
41694;DHT22;27377;50.666;9.150;2023-02-11T01:31:59;2.50;99.90
41694;DHT22;27377;50.666;9.150;2023-02-11T01:34:25;2.50;99.90
41694;DHT22;27377;50.666;9.150;2023-02-11T01:36:50;2.50;99.90
41694;DHT22;27377;50.666;9.150;2023-02-11T01:39:20;2.50;99.90
41694;DHT22;27377;50.666;9.150;2023-02-11T01:41:45;2.50;99.90
41694;DHT22;27377;50.666;9.150;2023-02-11T01:44:36;2.50;99.90
41694;DHT22;27377;50.666;9.150;2023-02-11T01:47:02;2.50;99.90
41694;DHT22;27377;50.666;9.150;2023-02-11T01:49:33;2.50;99.90
41694;DHT22;27377;50.666;9.150;2023-02-11T01:52:34;2.50;99.90
41694;DHT22;27377;50.666;9.150;2023-02-11T01:55:04;2.50;99.90
41694;DHT22;27377;50.666;9.150;2023-02-11T01:57:54;2.50;99.90
41694;DHT22;27377;50.666;9.150;2023-02-11T02:00:29;2.50;99.90
41694;DHT22;27377;50.666;9.150;2023-02-11T02:06:05;2.50;99.90
41694;DHT22;27377;50.666;9.150;2023-02-11T02:10:57;2.50;99.90
41694;DHT22;27377;50.666;9.150;2023-02-11T02:13:26;2.40;99.90
41694;DHT22;27377;50.666;9.150;2023-02-11T02:15:54;2.50;99.90
41694;DHT22;27377;50.666;9.150;2023-02-11T02:18:52;2.40;99.90
41694;DHT22;27377;50.666;9.150;2023-02-11T02:27:22;2.50;99.90
41694;DHT22;27377;50.666;9.150;2023-02-11T02:35:00;2.40;99.90
41694;DHT22;27377;50.666;9.150;2023-02-11T02:40:30;2.40;99.90
41694;DHT22;27377;50.666;9.150;2023-02-11T02:42:57;2.40;99.90
41694;DHT22;27377;50.666;9.150;2023-02-11T02:45:24;2.40;99.90
41694;DHT22;27377;50.666;9.150;2023-02-11T02:47:49;2.40;99.90
41694;DHT22;27377;50.666;9.150;2023-02-11T02:50:19;2.40;99.90
41694;DHT22;27377;50.666;9.150;2023-02-11T02:52:58;2.40;99.90
41694;DHT22;27377;50.666;9.150;2023-02-11T02:55:33;2.40;99.90
41694;DHT22;27377;50.666;9.150;2023-02-11T03:03:14;2.40;99.90
41694;DHT22;27377;50.666;9.150;2023-02-11T03:05:53;2.40;99.90
41694;DHT22;27377;50.666;9.150;2023-02-11T03:08:31;2.40;99.90
41694;DHT22;27377;50.666;9.150;2023-02-11T03:11:00;2.40;99.90
41694;DHT22;27377;50.666;9.150;2023-02-11T03:13:30;2.40;99.90
41694;DHT22;27377;50.666;9.150;2023-02-11T03:16:03;2.40;99.90
41694;DHT22;27377;50.666;9.150;2023-02-11T03:18:34;2.50;99.90
41694;DHT22;27377;50.666;9.150;2023-02-11T03:21:02;2.40;99.90
41694;DHT22;27377;50.666;9.150;2023-02-11T03:23:46;2.50;99.90
41694;DHT22;27377;50.666;9.150;2023-02-11T03:26:25;2.40;99.90
41694;DHT22;27377;50.666;9.150;2023-02-11T03:29:00;2.50;99.90
41694;DHT22;27377;50.666;9.150;2023-02-11T03:34:17;2.50;99.90
41694;DHT22;27377;50.666;9.150;2023-02-11T03:40:20;2.50;99.90
41694;DHT22;27377;50.666;9.150;2023-02-11T03:42:55;2.50;99.90
41694;DHT22;27377;50.666;9.150;2023-02-11T03:45:22;2.50;99.90
41694;DHT22;27377;50.666;9.150;2023-02-11T03:47:59;2.50;99.90
41694;DHT22;27377;50.666;9.150;2023-02-11T03:50:27;2.50;99.90
41694;DHT22;27377;50.666;9.150;2023-02-11T03:52:55;2.50;99.90
41694;DHT22;27377;50.666;9.150;2023-02-11T03:55:22;2.50;99.90
41694;DHT22;27377;50.666;9.150;2023-02-11T03:57:50;2.50;99.90
41694;DHT22;27377;50.666;9.150;2023-02-11T04:00:16;2.50;99.90
41694;DHT22;27377;50.666;9.150;2023-02-11T04:02:42;2.50;99.90
41694;DHT22;27377;50.666;9.150;2023-02-11T04:05:13;2.50;99.90
41694;DHT22;27377;50.666;9.150;2023-02-11T04:07:39;2.50;99.90
41694;DHT22;27377;50.666;9.150;2023-02-11T04:10:05;2.50;99.90
41694;DHT22;27377;50.666;9.150;2023-02-11T04:12:31;2.50;99.90
41694;DHT22;27377;50.666;9.150;2023-02-11T04:14:56;2.50;99.90
41694;DHT22;27377;50.666;9.150;2023-02-11T04:17:22;2.60;99.90
41694;DHT22;27377;50.666;9.150;2023-02-11T04:19:47;2.50;99.90
41694;DHT22;27377;50.666;9.150;2023-02-11T04:22:13;2.50;99.90
41694;DHT22;27377;50.666;9.150;2023-02-11T04:24:38;2.50;99.90
41694;DHT22;27377;50.666;9.150;2023-02-11T04:27:04;2.60;99.90
41694;DHT22;27377;50.666;9.150;2023-02-11T04:29:29;2.50;99.90
41694;DHT22;27377;50.666;9.150;2023-02-11T04:31:56;2.60;99.90
41694;DHT22;27377;50.666;9.150;2023-02-11T04:34:22;2.60;99.90
41694;DHT22;27377;50.666;9.150;2023-02-11T04:36:49;2.60;99.90
41694;DHT22;27377;50.666;9.150;2023-02-11T04:39:14;2.60;99.90
41694;DHT22;27377;50.666;9.150;2023-02-11T04:41:40;2.60;99.90
41694;DHT22;27377;50.666;9.150;2023-02-11T04:44:05;2.60;99.90
41694;DHT22;27377;50.666;9.150;2023-02-11T04:46:31;2.60;99.90
41694;DHT22;27377;50.666;9.150;2023-02-11T04:48:56;2.60;99.90
41694;DHT22;27377;50.666;9.150;2023-02-11T04:51:22;2.60;99.90
41694;DHT22;27377;50.666;9.150;2023-02-11T04:53:48;2.60;99.90
41694;DHT22;27377;50.666;9.150;2023-02-11T04:56:14;2.60;99.90
41694;DHT22;27377;50.666;9.150;2023-02-11T04:58:39;2.60;99.90
41694;DHT22;27377;50.666;9.150;2023-02-11T05:01:09;2.60;99.90
41694;DHT22;27377;50.666;9.150;2023-02-11T05:03:35;2.60;99.90
41694;DHT22;27377;50.666;9.150;2023-02-11T05:06:02;2.60;99.90
41694;DHT22;27377;50.666;9.150;2023-02-11T05:08:28;2.60;99.90
41694;DHT22;27377;50.666;9.150;2023-02-11T05:10:53;2.60;99.90
41694;DHT22;27377;50.666;9.150;2023-02-11T05:13:19;2.60;99.90
41694;DHT22;27377;50.666;9.150;2023-02-11T05:15:44;2.60;99.90
41694;DHT22;27377;50.666;9.150;2023-02-11T05:18:10;2.60;99.90
41694;DHT22;27377;50.666;9.150;2023-02-11T05:20:38;2.60;99.90
41694;DHT22;27377;50.666;9.150;2023-02-11T05:23:04;2.60;99.90
41694;DHT22;27377;50.666;9.150;2023-02-11T05:25:29;2.60;99.90
41694;DHT22;27377;50.666;9.150;2023-02-11T05:27:55;2.60;99.90
41694;DHT22;27377;50.666;9.150;2023-02-11T05:30:21;2.60;99.90
41694;DHT22;27377;50.666;9.150;2023-02-11T05:32:46;2.60;99.90
41694;DHT22;27377;50.666;9.150;2023-02-11T05:35:12;2.60;99.90
41694;DHT22;27377;50.666;9.150;2023-02-11T05:37:38;2.60;99.90
41694;DHT22;27377;50.666;9.150;2023-02-11T05:40:05;2.60;99.90
41694;DHT22;27377;50.666;9.150;2023-02-11T05:42:30;2.60;99.90
41694;DHT22;27377;50.666;9.150;2023-02-11T05:44:56;2.60;99.90
41694;DHT22;27377;50.666;9.150;2023-02-11T05:47:22;2.60;99.90
41694;DHT22;27377;50.666;9.150;2023-02-11T05:49:48;2.60;99.90
41694;DHT22;27377;50.666;9.150;2023-02-11T05:52:13;2.60;99.90
41694;DHT22;27377;50.666;9.150;2023-02-11T05:54:39;2.60;99.90
41694;DHT22;27377;50.666;9.150;2023-02-11T05:57:04;2.60;99.90
41694;DHT22;27377;50.666;9.150;2023-02-11T05:59:30;2.60;99.90
41694;DHT22;27377;50.666;9.150;2023-02-11T06:01:55;2.60;99.90
41694;DHT22;27377;50.666;9.150;2023-02-11T06:04:21;2.60;99.90
41694;DHT22;27377;50.666;9.150;2023-02-11T06:06:49;2.60;99.90
41694;DHT22;27377;50.666;9.150;2023-02-11T06:09:18;2.60;99.90
41694;DHT22;27377;50.666;9.150;2023-02-11T06:11:43;2.60;99.90
41694;DHT22;27377;50.666;9.150;2023-02-11T06:14:09;2.60;99.90
41694;DHT22;27377;50.666;9.150;2023-02-11T06:16:35;2.60;99.90
41694;DHT22;27377;50.666;9.150;2023-02-11T06:19:01;2.60;99.90
41694;DHT22;27377;50.666;9.150;2023-02-11T06:21:27;2.60;99.90
41694;DHT22;27377;50.666;9.150;2023-02-11T06:23:52;2.60;99.90
41694;DHT22;27377;50.666;9.150;2023-02-11T06:26:21;2.60;99.90
41694;DHT22;27377;50.666;9.150;2023-02-11T06:28:47;2.60;99.90
41694;DHT22;27377;50.666;9.150;2023-02-11T06:31:13;2.60;99.90
41694;DHT22;27377;50.666;9.150;2023-02-11T06:33:39;2.60;99.90
41694;DHT22;27377;50.666;9.150;2023-02-11T06:36:17;2.60;99.90
41694;DHT22;27377;50.666;9.150;2023-02-11T06:38:44;2.60;99.90
41694;DHT22;27377;50.666;9.150;2023-02-11T06:41:11;2.60;99.90
41694;DHT22;27377;50.666;9.150;2023-02-11T06:43:40;2.60;99.90
41694;DHT22;27377;50.666;9.150;2023-02-11T06:46:06;2.60;99.90
41694;DHT22;27377;50.666;9.150;2023-02-11T06:48:32;2.60;99.90
41694;DHT22;27377;50.666;9.150;2023-02-11T06:51:07;2.60;99.90
41694;DHT22;27377;50.666;9.150;2023-02-11T06:53:41;2.60;99.90
41694;DHT22;27377;50.666;9.150;2023-02-11T06:56:12;2.70;99.90
41694;DHT22;27377;50.666;9.150;2023-02-11T06:58:38;2.70;99.90
41694;DHT22;27377;50.666;9.150;2023-02-11T07:01:05;2.70;99.90
41694;DHT22;27377;50.666;9.150;2023-02-11T07:03:35;2.60;99.90
41694;DHT22;27377;50.666;9.150;2023-02-11T07:06:03;2.60;99.90
41694;DHT22;27377;50.666;9.150;2023-02-11T07:08:31;2.70;99.90
41694;DHT22;27377;50.666;9.150;2023-02-11T07:10:57;2.70;99.90
41694;DHT22;27377;50.666;9.150;2023-02-11T07:13:22;2.70;99.90
41694;DHT22;27377;50.666;9.150;2023-02-11T07:15:48;2.70;99.90
41694;DHT22;27377;50.666;9.150;2023-02-11T07:18:15;2.70;99.90
41694;DHT22;27377;50.666;9.150;2023-02-11T07:20:40;2.70;99.90
41694;DHT22;27377;50.666;9.150;2023-02-11T07:23:06;2.70;99.90
41694;DHT22;27377;50.666;9.150;2023-02-11T07:25:32;2.70;99.90
41694;DHT22;27377;50.666;9.150;2023-02-11T07:27:58;2.70;99.90
41694;DHT22;27377;50.666;9.150;2023-02-11T07:30:24;2.70;99.90
41694;DHT22;27377;50.666;9.150;2023-02-11T07:32:50;2.80;99.90
41694;DHT22;27377;50.666;9.150;2023-02-11T07:35:15;2.80;99.90
41694;DHT22;27377;50.666;9.150;2023-02-11T07:37:41;2.70;99.90
41694;DHT22;27377;50.666;9.150;2023-02-11T07:40:10;2.70;99.90
41694;DHT22;27377;50.666;9.150;2023-02-11T07:42:39;2.80;99.90
41694;DHT22;27377;50.666;9.150;2023-02-11T07:45:06;2.80;99.90
41694;DHT22;27377;50.666;9.150;2023-02-11T07:47:33;2.80;99.90
41694;DHT22;27377;50.666;9.150;2023-02-11T07:49:59;2.80;99.90
41694;DHT22;27377;50.666;9.150;2023-02-11T07:52:27;2.80;99.90
41694;DHT22;27377;50.666;9.150;2023-02-11T07:54:53;2.80;99.90
41694;DHT22;27377;50.666;9.150;2023-02-11T07:57:18;2.80;99.90
41694;DHT22;27377;50.666;9.150;2023-02-11T07:59:44;2.80;99.90
41694;DHT22;27377;50.666;9.150;2023-02-11T08:02:12;2.80;99.90
41694;DHT22;27377;50.666;9.150;2023-02-11T08:04:41;2.80;99.90
41694;DHT22;27377;50.666;9.150;2023-02-11T08:07:15;2.80;99.90
41694;DHT22;27377;50.666;9.150;2023-02-11T08:09:41;2.80;99.90
41694;DHT22;27377;50.666;9.150;2023-02-11T08:12:06;2.80;99.90
41694;DHT22;27377;50.666;9.150;2023-02-11T08:14:32;2.80;99.90
41694;DHT22;27377;50.666;9.150;2023-02-11T08:16:57;2.80;99.90
41694;DHT22;27377;50.666;9.150;2023-02-11T08:19:23;2.80;99.90
41694;DHT22;27377;50.666;9.150;2023-02-11T08:21:49;2.80;99.90
41694;DHT22;27377;50.666;9.150;2023-02-11T08:24:15;2.80;99.90
41694;DHT22;27377;50.666;9.150;2023-02-11T08:26:41;2.90;99.90
41694;DHT22;27377;50.666;9.150;2023-02-11T08:29:12;2.80;99.90
41694;DHT22;27377;50.666;9.150;2023-02-11T08:31:40;2.90;99.90
41694;DHT22;27377;50.666;9.150;2023-02-11T08:34:06;2.90;99.90
41694;DHT22;27377;50.666;9.150;2023-02-11T08:36:34;2.90;99.90
41694;DHT22;27377;50.666;9.150;2023-02-11T08:39:06;2.90;99.90
41694;DHT22;27377;50.666;9.150;2023-02-11T08:41:33;2.90;99.90
41694;DHT22;27377;50.666;9.150;2023-02-11T08:44:00;2.90;99.90
41694;DHT22;27377;50.666;9.150;2023-02-11T08:46:33;2.90;99.90
41694;DHT22;27377;50.666;9.150;2023-02-11T08:48:58;2.90;99.90
41694;DHT22;27377;50.666;9.150;2023-02-11T08:51:26;2.90;99.90
41694;DHT22;27377;50.666;9.150;2023-02-11T08:53:53;2.90;99.90
41694;DHT22;27377;50.666;9.150;2023-02-11T08:56:20;2.90;99.90
41694;DHT22;27377;50.666;9.150;2023-02-11T08:58:46;2.90;99.90
41694;DHT22;27377;50.666;9.150;2023-02-11T09:01:17;2.90;99.90
41694;DHT22;27377;50.666;9.150;2023-02-11T09:03:44;2.90;99.90
41694;DHT22;27377;50.666;9.150;2023-02-11T09:06:11;2.90;99.90
41694;DHT22;27377;50.666;9.150;2023-02-11T09:08:46;2.90;99.90
41694;DHT22;27377;50.666;9.150;2023-02-11T09:11:13;2.90;99.90
41694;DHT22;27377;50.666;9.150;2023-02-11T09:13:40;2.90;99.90
41694;DHT22;27377;50.666;9.150;2023-02-11T09:16:07;2.90;99.90
41694;DHT22;27377;50.666;9.150;2023-02-11T09:18:32;2.90;99.90
41694;DHT22;27377;50.666;9.150;2023-02-11T09:21:06;3.00;99.90
41694;DHT22;27377;50.666;9.150;2023-02-11T09:23:32;3.00;99.90
41694;DHT22;27377;50.666;9.150;2023-02-11T09:26:04;3.00;99.90
41694;DHT22;27377;50.666;9.150;2023-02-11T09:28:29;3.00;99.90
41694;DHT22;27377;50.666;9.150;2023-02-11T09:30:55;2.90;99.90
41694;DHT22;27377;50.666;9.150;2023-02-11T09:33:21;3.00;99.90
41694;DHT22;27377;50.666;9.150;2023-02-11T09:35:46;3.00;99.90
41694;DHT22;27377;50.666;9.150;2023-02-11T09:38:12;3.00;99.90
41694;DHT22;27377;50.666;9.150;2023-02-11T09:40:42;3.00;99.90
41694;DHT22;27377;50.666;9.150;2023-02-11T09:45:40;3.00;99.90
41694;DHT22;27377;50.666;9.150;2023-02-11T09:48:17;3.00;99.90
41694;DHT22;27377;50.666;9.150;2023-02-11T09:50:46;3.00;99.90
41694;DHT22;27377;50.666;9.150;2023-02-11T09:53:23;3.10;99.90
41694;DHT22;27377;50.666;9.150;2023-02-11T09:55:56;3.00;99.90
41694;DHT22;27377;50.666;9.150;2023-02-11T09:58:29;3.00;99.90
41694;DHT22;27377;50.666;9.150;2023-02-11T10:04:18;3.00;99.90
41694;DHT22;27377;50.666;9.150;2023-02-11T10:06:53;3.10;99.90
41694;DHT22;27377;50.666;9.150;2023-02-11T10:15:17;3.10;99.90
41694;DHT22;27377;50.666;9.150;2023-02-11T10:20:58;3.10;99.90
41694;DHT22;27377;50.666;9.150;2023-02-11T10:23:34;3.10;99.90
41694;DHT22;27377;50.666;9.150;2023-02-11T10:26:01;3.10;99.90
41694;DHT22;27377;50.666;9.150;2023-02-11T10:28:30;3.20;99.90
41694;DHT22;27377;50.666;9.150;2023-02-11T10:31:03;3.10;99.90
41694;DHT22;27377;50.666;9.150;2023-02-11T10:36:13;3.10;99.90
41694;DHT22;27377;50.666;9.150;2023-02-11T10:38:39;3.20;99.90
41694;DHT22;27377;50.666;9.150;2023-02-11T10:41:05;3.10;99.90
41694;DHT22;27377;50.666;9.150;2023-02-11T10:43:32;3.20;99.90
41694;DHT22;27377;50.666;9.150;2023-02-11T10:45:59;3.10;99.90
41694;DHT22;27377;50.666;9.150;2023-02-11T10:48:40;3.20;99.90
41694;DHT22;27377;50.666;9.150;2023-02-11T10:53:37;3.20;99.90
41694;DHT22;27377;50.666;9.150;2023-02-11T10:56:05;3.20;99.90
41694;DHT22;27377;50.666;9.150;2023-02-11T10:58:45;3.20;99.90
41694;DHT22;27377;50.666;9.150;2023-02-11T11:01:18;3.20;99.90
41694;DHT22;27377;50.666;9.150;2023-02-11T11:03:51;3.20;99.90
41694;DHT22;27377;50.666;9.150;2023-02-11T11:06:28;3.20;99.90
41694;DHT22;27377;50.666;9.150;2023-02-11T11:08:54;3.20;99.90
41694;DHT22;27377;50.666;9.150;2023-02-11T11:11:22;3.20;99.90
41694;DHT22;27377;50.666;9.150;2023-02-11T11:16:34;3.20;99.90
41694;DHT22;27377;50.666;9.150;2023-02-11T11:21:51;3.20;99.90
41694;DHT22;27377;50.666;9.150;2023-02-11T11:24:42;3.30;99.90
41694;DHT22;27377;50.666;9.150;2023-02-11T11:27:17;3.30;99.90
41694;DHT22;27377;50.666;9.150;2023-02-11T11:29:53;3.30;99.90
41694;DHT22;27377;50.666;9.150;2023-02-11T11:32:23;3.30;99.90
41694;DHT22;27377;50.666;9.150;2023-02-11T11:34:54;3.30;99.90
41694;DHT22;27377;50.666;9.150;2023-02-11T11:39:56;3.30;99.90
41694;DHT22;27377;50.666;9.150;2023-02-11T11:42:31;3.30;99.90
41694;DHT22;27377;50.666;9.150;2023-02-11T11:44:59;3.30;99.90
41694;DHT22;27377;50.666;9.150;2023-02-11T11:47:40;3.40;99.90
41694;DHT22;27377;50.666;9.150;2023-02-11T11:50:44;3.30;99.90
41694;DHT22;27377;50.666;9.150;2023-02-11T11:56:05;3.30;99.90
41694;DHT22;27377;50.666;9.150;2023-02-11T11:58:33;3.40;99.90
41694;DHT22;27377;50.666;9.150;2023-02-11T12:04:36;3.40;99.90
41694;DHT22;27377;50.666;9.150;2023-02-11T12:12:57;3.40;99.90
41694;DHT22;27377;50.666;9.150;2023-02-11T12:15:43;3.40;99.90
41694;DHT22;27377;50.666;9.150;2023-02-11T12:18:29;3.40;99.90
41694;DHT22;27377;50.666;9.150;2023-02-11T12:21:21;3.40;99.90
41694;DHT22;27377;50.666;9.150;2023-02-11T12:29:12;3.40;99.90
41694;DHT22;27377;50.666;9.150;2023-02-11T12:38:16;3.40;99.90
41694;DHT22;27377;50.666;9.150;2023-02-11T12:43:39;3.50;99.90
41694;DHT22;27377;50.666;9.150;2023-02-11T12:46:31;3.50;99.90
41694;DHT22;27377;50.666;9.150;2023-02-11T12:52:31;3.50;99.90
41694;DHT22;27377;50.666;9.150;2023-02-11T12:57:21;3.50;99.90
41694;DHT22;27377;50.666;9.150;2023-02-11T13:00:04;3.50;99.90
41694;DHT22;27377;50.666;9.150;2023-02-11T13:02:57;3.60;99.90
41694;DHT22;27377;50.666;9.150;2023-02-11T13:05:28;3.60;99.90
41694;DHT22;27377;50.666;9.150;2023-02-11T13:08:10;3.60;99.90
41694;DHT22;27377;50.666;9.150;2023-02-11T13:10:40;3.60;99.90
41694;DHT22;27377;50.666;9.150;2023-02-11T13:13:28;3.60;99.90
41694;DHT22;27377;50.666;9.150;2023-02-11T13:16:05;3.60;99.90
41694;DHT22;27377;50.666;9.150;2023-02-11T13:21:34;3.60;99.90
41694;DHT22;27377;50.666;9.150;2023-02-11T13:26:41;3.60;99.90
41694;DHT22;27377;50.666;9.150;2023-02-11T13:29:19;3.60;99.90
41694;DHT22;27377;50.666;9.150;2023-02-11T13:32:05;3.60;99.90
41694;DHT22;27377;50.666;9.150;2023-02-11T13:37:25;3.60;99.90
41694;DHT22;27377;50.666;9.150;2023-02-11T13:40:04;3.70;99.90
41694;DHT22;27377;50.666;9.150;2023-02-11T13:42:31;3.70;99.90
41694;DHT22;27377;50.666;9.150;2023-02-11T13:44:58;3.70;99.90
41694;DHT22;27377;50.666;9.150;2023-02-11T13:47:30;3.60;99.90
41694;DHT22;27377;50.666;9.150;2023-02-11T13:49:57;3.70;99.90
41694;DHT22;27377;50.666;9.150;2023-02-11T13:52:37;3.70;99.90
41694;DHT22;27377;50.666;9.150;2023-02-11T13:57:39;3.70;99.90
41694;DHT22;27377;50.666;9.150;2023-02-11T14:11:53;3.80;99.90
41694;DHT22;27377;50.666;9.150;2023-02-11T14:14:30;3.80;99.90
41694;DHT22;27377;50.666;9.150;2023-02-11T14:19:36;3.80;99.90
41694;DHT22;27377;50.666;9.150;2023-02-11T14:22:13;3.80;99.90
41694;DHT22;27377;50.666;9.150;2023-02-11T14:25:01;3.80;99.90
41694;DHT22;27377;50.666;9.150;2023-02-11T14:33:05;3.80;99.90
41694;DHT22;27377;50.666;9.150;2023-02-11T14:35:54;3.90;99.90
41694;DHT22;27377;50.666;9.150;2023-02-11T14:38:27;3.90;99.90
41694;DHT22;27377;50.666;9.150;2023-02-11T14:41:23;3.90;99.90
41694;DHT22;27377;50.666;9.150;2023-02-11T14:43:53;3.90;99.90
41694;DHT22;27377;50.666;9.150;2023-02-11T14:46:21;3.90;99.90
41694;DHT22;27377;50.666;9.150;2023-02-11T14:48:53;3.90;99.90
41694;DHT22;27377;50.666;9.150;2023-02-11T14:51:28;3.90;99.90
41694;DHT22;27377;50.666;9.150;2023-02-11T14:56:35;4.00;99.90
41694;DHT22;27377;50.666;9.150;2023-02-11T14:59:01;3.90;99.90
41694;DHT22;27377;50.666;9.150;2023-02-11T15:01:40;3.90;99.90
41694;DHT22;27377;50.666;9.150;2023-02-11T15:04:22;4.00;99.90
41694;DHT22;27377;50.666;9.150;2023-02-11T15:06:48;4.00;99.90
41694;DHT22;27377;50.666;9.150;2023-02-11T15:09:22;4.00;99.90
41694;DHT22;27377;50.666;9.150;2023-02-11T15:11:52;3.90;99.90
41694;DHT22;27377;50.666;9.150;2023-02-11T15:14:32;3.90;99.90
41694;DHT22;27377;50.666;9.150;2023-02-11T15:17:02;3.90;99.90
41694;DHT22;27377;50.666;9.150;2023-02-11T15:19:31;3.90;99.90
41694;DHT22;27377;50.666;9.150;2023-02-11T15:22:00;4.00;99.90
41694;DHT22;27377;50.666;9.150;2023-02-11T15:24:31;3.90;99.90
41694;DHT22;27377;50.666;9.150;2023-02-11T15:27:03;4.00;99.90
41694;DHT22;27377;50.666;9.150;2023-02-11T15:29:42;4.00;99.90
41694;DHT22;27377;50.666;9.150;2023-02-11T15:34:34;4.00;99.90
41694;DHT22;27377;50.666;9.150;2023-02-11T15:37:02;4.00;99.90
41694;DHT22;27377;50.666;9.150;2023-02-11T15:39:37;4.00;99.90
41694;DHT22;27377;50.666;9.150;2023-02-11T15:42:27;4.00;99.90
41694;DHT22;27377;50.666;9.150;2023-02-11T15:50:39;3.90;99.90
41694;DHT22;27377;50.666;9.150;2023-02-11T15:53:33;3.90;99.90
41694;DHT22;27377;50.666;9.150;2023-02-11T15:56:13;3.90;99.90
41694;DHT22;27377;50.666;9.150;2023-02-11T15:58:43;4.00;99.90
41694;DHT22;27377;50.666;9.150;2023-02-11T16:01:10;4.00;99.90
41694;DHT22;27377;50.666;9.150;2023-02-11T16:03:36;4.00;99.90
41694;DHT22;27377;50.666;9.150;2023-02-11T16:08:40;4.00;99.90
41694;DHT22;27377;50.666;9.150;2023-02-11T16:11:26;4.00;99.90
41694;DHT22;27377;50.666;9.150;2023-02-11T16:13:54;4.00;99.90
41694;DHT22;27377;50.666;9.150;2023-02-11T16:16:26;4.00;99.90
41694;DHT22;27377;50.666;9.150;2023-02-11T16:18:55;4.00;99.90
41694;DHT22;27377;50.666;9.150;2023-02-11T16:21:29;4.00;99.90
41694;DHT22;27377;50.666;9.150;2023-02-11T16:23:57;4.00;99.90
41694;DHT22;27377;50.666;9.150;2023-02-11T16:26:33;4.00;99.90
41694;DHT22;27377;50.666;9.150;2023-02-11T16:29:09;4.10;99.90
41694;DHT22;27377;50.666;9.150;2023-02-11T16:31:37;4.10;99.90
41694;DHT22;27377;50.666;9.150;2023-02-11T16:34:14;4.10;99.90
41694;DHT22;27377;50.666;9.150;2023-02-11T16:36:40;4.10;99.90
41694;DHT22;27377;50.666;9.150;2023-02-11T16:39:06;4.10;99.90
41694;DHT22;27377;50.666;9.150;2023-02-11T16:41:31;4.10;99.90
41694;DHT22;27377;50.666;9.150;2023-02-11T16:43:57;4.10;99.90
41694;DHT22;27377;50.666;9.150;2023-02-11T16:46:23;4.10;99.90
41694;DHT22;27377;50.666;9.150;2023-02-11T16:48:49;4.10;99.90
41694;DHT22;27377;50.666;9.150;2023-02-11T16:51:15;4.10;99.90
41694;DHT22;27377;50.666;9.150;2023-02-11T16:53:40;4.10;99.90
41694;DHT22;27377;50.666;9.150;2023-02-11T16:56:16;4.10;99.90
41694;DHT22;27377;50.666;9.150;2023-02-11T16:58:42;4.10;99.90
41694;DHT22;27377;50.666;9.150;2023-02-11T17:01:08;4.10;99.90
41694;DHT22;27377;50.666;9.150;2023-02-11T17:03:34;4.10;99.90
41694;DHT22;27377;50.666;9.150;2023-02-11T17:06:08;4.10;99.90
41694;DHT22;27377;50.666;9.150;2023-02-11T17:08:34;4.10;99.90
41694;DHT22;27377;50.666;9.150;2023-02-11T17:11:01;4.10;99.90
41694;DHT22;27377;50.666;9.150;2023-02-11T17:13:27;4.10;99.90
41694;DHT22;27377;50.666;9.150;2023-02-11T17:15:52;4.10;99.90
41694;DHT22;27377;50.666;9.150;2023-02-11T17:18:18;4.10;99.90
41694;DHT22;27377;50.666;9.150;2023-02-11T17:20:43;4.10;99.90
41694;DHT22;27377;50.666;9.150;2023-02-11T17:23:09;4.10;99.90
41694;DHT22;27377;50.666;9.150;2023-02-11T17:25:35;4.10;99.90
41694;DHT22;27377;50.666;9.150;2023-02-11T17:28:05;4.10;99.90
41694;DHT22;27377;50.666;9.150;2023-02-11T17:30:30;4.10;99.90
41694;DHT22;27377;50.666;9.150;2023-02-11T17:32:56;4.10;99.90
41694;DHT22;27377;50.666;9.150;2023-02-11T17:35:22;4.10;99.90
41694;DHT22;27377;50.666;9.150;2023-02-11T17:37:47;4.10;99.90
41694;DHT22;27377;50.666;9.150;2023-02-11T17:40:13;4.10;99.90
41694;DHT22;27377;50.666;9.150;2023-02-11T17:42:39;4.10;99.90
41694;DHT22;27377;50.666;9.150;2023-02-11T17:45:05;4.10;99.90
41694;DHT22;27377;50.666;9.150;2023-02-11T17:47:31;4.20;99.90
41694;DHT22;27377;50.666;9.150;2023-02-11T17:49:56;4.20;99.90
41694;DHT22;27377;50.666;9.150;2023-02-11T17:52:22;4.20;99.90
41694;DHT22;27377;50.666;9.150;2023-02-11T17:54:49;4.20;99.90
41694;DHT22;27377;50.666;9.150;2023-02-11T17:57:14;4.20;99.90
41694;DHT22;27377;50.666;9.150;2023-02-11T17:59:40;4.20;99.90
41694;DHT22;27377;50.666;9.150;2023-02-11T18:02:06;4.20;99.90
41694;DHT22;27377;50.666;9.150;2023-02-11T18:04:32;4.20;99.90
41694;DHT22;27377;50.666;9.150;2023-02-11T18:06:58;4.20;99.90
41694;DHT22;27377;50.666;9.150;2023-02-11T18:09:24;4.10;99.90
41694;DHT22;27377;50.666;9.150;2023-02-11T18:11:50;4.20;99.90
41694;DHT22;27377;50.666;9.150;2023-02-11T18:14:17;4.20;99.90
41694;DHT22;27377;50.666;9.150;2023-02-11T18:16:43;4.20;99.90
41694;DHT22;27377;50.666;9.150;2023-02-11T18:19:11;4.20;99.90